sensor_id;sensor_type;location;lat;lon;timestamp;temperature;humidity
851;DHT22;412;51.400;7.480;2022-10-31T00:00:21;17.20;99.90
851;DHT22;412;51.400;7.480;2022-10-31T00:02:47;17.20;99.90
851;DHT22;412;51.400;7.480;2022-10-31T00:05:13;17.20;99.90
851;DHT22;412;51.400;7.480;2022-10-31T00:07:38;17.20;99.90
851;DHT22;412;51.400;7.480;2022-10-31T00:10:05;17.30;99.90
851;DHT22;412;51.400;7.480;2022-10-31T00:12:30;17.30;99.90
851;DHT22;412;51.400;7.480;2022-10-31T00:14:56;17.30;99.90
851;DHT22;412;51.400;7.480;2022-10-31T00:17:22;17.30;99.90
851;DHT22;412;51.400;7.480;2022-10-31T00:19:48;17.30;99.90
851;DHT22;412;51.400;7.480;2022-10-31T00:22:13;17.30;99.90
851;DHT22;412;51.400;7.480;2022-10-31T00:24:39;17.30;99.90
851;DHT22;412;51.400;7.480;2022-10-31T00:27:05;17.20;99.90
851;DHT22;412;51.400;7.480;2022-10-31T00:29:30;17.20;99.90
851;DHT22;412;51.400;7.480;2022-10-31T00:31:56;17.20;99.90
851;DHT22;412;51.400;7.480;2022-10-31T00:34:22;17.20;99.90
851;DHT22;412;51.400;7.480;2022-10-31T00:36:47;17.20;99.90
851;DHT22;412;51.400;7.480;2022-10-31T00:39:13;17.10;99.90
851;DHT22;412;51.400;7.480;2022-10-31T00:41:38;17.10;99.90
851;DHT22;412;51.400;7.480;2022-10-31T00:44:04;17.10;99.90
851;DHT22;412;51.400;7.480;2022-10-31T00:46:30;17.00;99.90
851;DHT22;412;51.400;7.480;2022-10-31T00:48:56;17.10;99.90
851;DHT22;412;51.400;7.480;2022-10-31T00:51:21;17.00;99.90
851;DHT22;412;51.400;7.480;2022-10-31T00:53:47;17.00;99.90
851;DHT22;412;51.400;7.480;2022-10-31T00:56:13;17.00;99.90
851;DHT22;412;51.400;7.480;2022-10-31T00:58:38;17.00;99.90
851;DHT22;412;51.400;7.480;2022-10-31T01:01:04;17.00;99.90
851;DHT22;412;51.400;7.480;2022-10-31T01:03:32;17.00;99.90
851;DHT22;412;51.400;7.480;2022-10-31T01:06:07;17.00;99.90
851;DHT22;412;51.400;7.480;2022-10-31T01:08:34;17.00;99.90
851;DHT22;412;51.400;7.480;2022-10-31T01:11:21;17.00;99.90
851;DHT22;412;51.400;7.480;2022-10-31T01:13:50;17.00;99.90
851;DHT22;412;51.400;7.480;2022-10-31T01:16:17;17.00;99.90
851;DHT22;412;51.400;7.480;2022-10-31T01:18:44;17.00;99.90
851;DHT22;412;51.400;7.480;2022-10-31T01:21:12;17.00;99.90
851;DHT22;412;51.400;7.480;2022-10-31T01:23:39;17.10;99.90
851;DHT22;412;51.400;7.480;2022-10-31T01:26:16;17.10;99.90
851;DHT22;412;51.400;7.480;2022-10-31T01:28:54;17.10;99.90
851;DHT22;412;51.400;7.480;2022-10-31T01:31:21;17.10;99.90
851;DHT22;412;51.400;7.480;2022-10-31T01:33:47;17.10;99.90
851;DHT22;412;51.400;7.480;2022-10-31T01:36:22;17.00;99.90
851;DHT22;412;51.400;7.480;2022-10-31T01:38:48;17.00;99.90
851;DHT22;412;51.400;7.480;2022-10-31T01:41:17;17.00;99.90
851;DHT22;412;51.400;7.480;2022-10-31T01:43:54;17.10;99.90
851;DHT22;412;51.400;7.480;2022-10-31T01:46:39;17.10;99.90
851;DHT22;412;51.400;7.480;2022-10-31T01:49:11;17.10;99.90
851;DHT22;412;51.400;7.480;2022-10-31T01:51:43;17.10;99.90
851;DHT22;412;51.400;7.480;2022-10-31T01:54:13;17.20;99.90
851;DHT22;412;51.400;7.480;2022-10-31T01:56:42;17.20;99.90
851;DHT22;412;51.400;7.480;2022-10-31T01:59:11;17.20;99.90
851;DHT22;412;51.400;7.480;2022-10-31T02:01:40;17.30;99.90
851;DHT22;412;51.400;7.480;2022-10-31T02:04:06;17.30;99.90
851;DHT22;412;51.400;7.480;2022-10-31T02:07:02;17.30;99.90
851;DHT22;412;51.400;7.480;2022-10-31T02:09:30;17.30;99.90
851;DHT22;412;51.400;7.480;2022-10-31T02:11:59;17.30;99.90
851;DHT22;412;51.400;7.480;2022-10-31T02:14:28;17.30;99.90
851;DHT22;412;51.400;7.480;2022-10-31T02:16:55;17.30;99.90
851;DHT22;412;51.400;7.480;2022-10-31T02:22:24;16.80;99.90
851;DHT22;412;51.400;7.480;2022-10-31T02:30:14;16.30;99.90
851;DHT22;412;51.400;7.480;2022-10-31T02:41:02;15.90;99.90
851;DHT22;412;51.400;7.480;2022-10-31T02:43:57;16.00;99.90
851;DHT22;412;51.400;7.480;2022-10-31T02:46:45;16.10;99.90
851;DHT22;412;51.400;7.480;2022-10-31T02:52:00;16.20;99.90
851;DHT22;412;51.400;7.480;2022-10-31T02:54:27;16.20;99.90
851;DHT22;412;51.400;7.480;2022-10-31T02:57:03;16.20;99.90
851;DHT22;412;51.400;7.480;2022-10-31T02:59:32;16.30;99.90
851;DHT22;412;51.400;7.480;2022-10-31T03:05:03;16.30;99.90
851;DHT22;412;51.400;7.480;2022-10-31T03:10:43;16.30;99.90
851;DHT22;412;51.400;7.480;2022-10-31T03:13:25;16.30;99.90
851;DHT22;412;51.400;7.480;2022-10-31T03:19:08;16.30;99.90
851;DHT22;412;51.400;7.480;2022-10-31T03:21:40;16.20;99.90
851;DHT22;412;51.400;7.480;2022-10-31T03:24:09;16.20;99.90
851;DHT22;412;51.400;7.480;2022-10-31T03:26:39;16.20;99.90
851;DHT22;412;51.400;7.480;2022-10-31T03:29:08;16.20;99.90
851;DHT22;412;51.400;7.480;2022-10-31T03:31:47;16.20;99.90
851;DHT22;412;51.400;7.480;2022-10-31T03:34:15;16.20;99.90
851;DHT22;412;51.400;7.480;2022-10-31T03:36:44;16.20;99.90
851;DHT22;412;51.400;7.480;2022-10-31T03:39:14;16.10;99.90
851;DHT22;412;51.400;7.480;2022-10-31T03:41:44;16.20;99.90
851;DHT22;412;51.400;7.480;2022-10-31T03:44:15;16.10;99.90
851;DHT22;412;51.400;7.480;2022-10-31T03:46:42;16.10;99.90
851;DHT22;412;51.400;7.480;2022-10-31T03:49:09;16.10;99.90
851;DHT22;412;51.400;7.480;2022-10-31T03:54:30;16.00;99.90
851;DHT22;412;51.400;7.480;2022-10-31T03:59:43;15.90;99.90
851;DHT22;412;51.400;7.480;2022-10-31T04:02:14;15.90;99.90
851;DHT22;412;51.400;7.480;2022-10-31T04:04:43;15.90;99.90
851;DHT22;412;51.400;7.480;2022-10-31T04:07:10;16.00;99.90
851;DHT22;412;51.400;7.480;2022-10-31T04:09:38;15.90;99.90
851;DHT22;412;51.400;7.480;2022-10-31T04:12:06;15.90;99.90
851;DHT22;412;51.400;7.480;2022-10-31T04:14:38;15.80;99.90
851;DHT22;412;51.400;7.480;2022-10-31T04:17:11;15.80;99.90
851;DHT22;412;51.400;7.480;2022-10-31T04:19:37;15.80;99.90
851;DHT22;412;51.400;7.480;2022-10-31T04:22:06;15.80;99.90
851;DHT22;412;51.400;7.480;2022-10-31T04:24:32;15.90;99.90
851;DHT22;412;51.400;7.480;2022-10-31T04:26:57;15.90;99.90
851;DHT22;412;51.400;7.480;2022-10-31T04:29:23;15.90;99.90
851;DHT22;412;51.400;7.480;2022-10-31T04:31:49;15.90;99.90
851;DHT22;412;51.400;7.480;2022-10-31T04:34:14;15.80;99.90
851;DHT22;412;51.400;7.480;2022-10-31T04:36:40;15.90;99.90
851;DHT22;412;51.400;7.480;2022-10-31T04:39:06;15.90;99.90
851;DHT22;412;51.400;7.480;2022-10-31T04:41:31;15.80;99.90
851;DHT22;412;51.400;7.480;2022-10-31T04:43:57;15.70;99.90
851;DHT22;412;51.400;7.480;2022-10-31T04:46:23;15.50;99.90
851;DHT22;412;51.400;7.480;2022-10-31T04:48:49;15.50;99.90
851;DHT22;412;51.400;7.480;2022-10-31T04:51:14;15.40;99.90
851;DHT22;412;51.400;7.480;2022-10-31T04:53:40;15.40;99.90
851;DHT22;412;51.400;7.480;2022-10-31T04:56:06;15.50;99.90
851;DHT22;412;51.400;7.480;2022-10-31T04:58:32;15.60;99.90
851;DHT22;412;51.400;7.480;2022-10-31T05:00:57;15.60;99.90
851;DHT22;412;51.400;7.480;2022-10-31T05:03:23;15.60;99.90
851;DHT22;412;51.400;7.480;2022-10-31T05:05:49;15.60;99.90
851;DHT22;412;51.400;7.480;2022-10-31T05:08:15;15.60;99.90
851;DHT22;412;51.400;7.480;2022-10-31T05:10:40;15.60;99.90
851;DHT22;412;51.400;7.480;2022-10-31T05:13:06;15.60;99.90
851;DHT22;412;51.400;7.480;2022-10-31T05:15:32;15.50;99.90
851;DHT22;412;51.400;7.480;2022-10-31T05:17:58;15.60;99.90
851;DHT22;412;51.400;7.480;2022-10-31T05:20:28;15.60;99.90
851;DHT22;412;51.400;7.480;2022-10-31T05:22:55;15.50;99.90
851;DHT22;412;51.400;7.480;2022-10-31T05:25:23;15.50;99.90
851;DHT22;412;51.400;7.480;2022-10-31T05:27:50;15.50;99.90
851;DHT22;412;51.400;7.480;2022-10-31T05:30:22;15.50;99.90
851;DHT22;412;51.400;7.480;2022-10-31T05:32:50;15.50;99.90
851;DHT22;412;51.400;7.480;2022-10-31T05:35:24;15.50;99.90
851;DHT22;412;51.400;7.480;2022-10-31T05:37:50;15.60;99.90
851;DHT22;412;51.400;7.480;2022-10-31T05:40:26;15.60;99.90
851;DHT22;412;51.400;7.480;2022-10-31T05:42:53;15.60;99.90
851;DHT22;412;51.400;7.480;2022-10-31T05:45:20;15.60;99.90
851;DHT22;412;51.400;7.480;2022-10-31T05:47:57;15.60;99.90
851;DHT22;412;51.400;7.480;2022-10-31T05:50:23;15.60;99.90
851;DHT22;412;51.400;7.480;2022-10-31T05:53:00;15.60;99.90
851;DHT22;412;51.400;7.480;2022-10-31T05:55:27;15.60;99.90
851;DHT22;412;51.400;7.480;2022-10-31T05:57:53;15.60;99.90
851;DHT22;412;51.400;7.480;2022-10-31T06:00:20;15.60;99.90
851;DHT22;412;51.400;7.480;2022-10-31T06:02:46;15.60;99.90
851;DHT22;412;51.400;7.480;2022-10-31T06:05:12;15.60;99.90
851;DHT22;412;51.400;7.480;2022-10-31T06:07:38;15.60;99.90
851;DHT22;412;51.400;7.480;2022-10-31T06:10:06;15.60;99.90
851;DHT22;412;51.400;7.480;2022-10-31T06:12:33;15.50;99.90
851;DHT22;412;51.400;7.480;2022-10-31T06:15:04;15.50;99.90
851;DHT22;412;51.400;7.480;2022-10-31T06:17:31;15.50;99.90
851;DHT22;412;51.400;7.480;2022-10-31T06:19:56;15.50;99.90
851;DHT22;412;51.400;7.480;2022-10-31T06:22:22;15.40;99.90
851;DHT22;412;51.400;7.480;2022-10-31T06:24:48;15.40;99.90
851;DHT22;412;51.400;7.480;2022-10-31T06:27:13;15.50;99.90
851;DHT22;412;51.400;7.480;2022-10-31T06:29:39;15.50;99.90
851;DHT22;412;51.400;7.480;2022-10-31T06:32:05;15.50;99.90
851;DHT22;412;51.400;7.480;2022-10-31T06:34:30;15.60;99.90
851;DHT22;412;51.400;7.480;2022-10-31T06:36:56;15.60;99.90
851;DHT22;412;51.400;7.480;2022-10-31T06:39:21;15.60;99.90
851;DHT22;412;51.400;7.480;2022-10-31T06:41:48;15.60;99.90
851;DHT22;412;51.400;7.480;2022-10-31T06:44:13;15.60;99.90
851;DHT22;412;51.400;7.480;2022-10-31T06:46:39;15.60;99.90
851;DHT22;412;51.400;7.480;2022-10-31T06:49:05;15.50;99.90
851;DHT22;412;51.400;7.480;2022-10-31T06:51:30;15.50;99.90
851;DHT22;412;51.400;7.480;2022-10-31T06:53:56;15.50;99.90
851;DHT22;412;51.400;7.480;2022-10-31T06:56:22;15.40;99.90
851;DHT22;412;51.400;7.480;2022-10-31T06:58:47;15.40;99.90
851;DHT22;412;51.400;7.480;2022-10-31T07:01:13;15.40;99.90
851;DHT22;412;51.400;7.480;2022-10-31T07:03:39;15.40;99.90
851;DHT22;412;51.400;7.480;2022-10-31T07:06:04;15.40;99.90
851;DHT22;412;51.400;7.480;2022-10-31T07:08:30;15.30;99.90
851;DHT22;412;51.400;7.480;2022-10-31T07:10:57;15.30;99.90
851;DHT22;412;51.400;7.480;2022-10-31T07:13:23;15.40;99.90
851;DHT22;412;51.400;7.480;2022-10-31T07:16:00;15.30;99.90
851;DHT22;412;51.400;7.480;2022-10-31T07:18:26;15.30;99.90
851;DHT22;412;51.400;7.480;2022-10-31T07:20:52;15.30;99.90
851;DHT22;412;51.400;7.480;2022-10-31T07:23:19;15.30;99.90
851;DHT22;412;51.400;7.480;2022-10-31T07:25:44;15.30;99.90
851;DHT22;412;51.400;7.480;2022-10-31T07:28:10;15.30;99.90
851;DHT22;412;51.400;7.480;2022-10-31T07:30:37;15.20;99.90
851;DHT22;412;51.400;7.480;2022-10-31T07:33:03;15.20;99.90
851;DHT22;412;51.400;7.480;2022-10-31T07:35:30;15.30;99.90
851;DHT22;412;51.400;7.480;2022-10-31T07:37:56;15.20;99.90
851;DHT22;412;51.400;7.480;2022-10-31T07:40:23;15.20;99.90
851;DHT22;412;51.400;7.480;2022-10-31T07:42:51;15.10;99.90
851;DHT22;412;51.400;7.480;2022-10-31T07:45:19;15.10;99.90
851;DHT22;412;51.400;7.480;2022-10-31T07:47:47;15.10;99.90
851;DHT22;412;51.400;7.480;2022-10-31T07:50:21;15.10;99.90
851;DHT22;412;51.400;7.480;2022-10-31T07:52:47;14.90;99.90
851;DHT22;412;51.400;7.480;2022-10-31T07:55:14;14.80;99.90
851;DHT22;412;51.400;7.480;2022-10-31T07:57:40;14.90;99.90
851;DHT22;412;51.400;7.480;2022-10-31T08:00:10;14.90;99.90
851;DHT22;412;51.400;7.480;2022-10-31T08:02:35;15.00;99.90
851;DHT22;412;51.400;7.480;2022-10-31T08:05:01;15.10;99.90
851;DHT22;412;51.400;7.480;2022-10-31T08:07:28;15.20;99.90
851;DHT22;412;51.400;7.480;2022-10-31T08:09:54;15.20;99.90
851;DHT22;412;51.400;7.480;2022-10-31T08:12:20;15.20;99.90
851;DHT22;412;51.400;7.480;2022-10-31T08:14:46;15.20;99.90
851;DHT22;412;51.400;7.480;2022-10-31T08:17:12;15.20;99.90
851;DHT22;412;51.400;7.480;2022-10-31T08:19:40;15.30;99.90
851;DHT22;412;51.400;7.480;2022-10-31T08:22:06;15.30;99.90
851;DHT22;412;51.400;7.480;2022-10-31T08:24:32;15.40;99.90
851;DHT22;412;51.400;7.480;2022-10-31T08:26:57;15.40;99.90
851;DHT22;412;51.400;7.480;2022-10-31T08:29:23;15.50;99.90
851;DHT22;412;51.400;7.480;2022-10-31T08:31:49;15.60;99.90
851;DHT22;412;51.400;7.480;2022-10-31T08:34:14;15.70;99.90
851;DHT22;412;51.400;7.480;2022-10-31T08:36:40;15.70;99.90
851;DHT22;412;51.400;7.480;2022-10-31T08:39:07;15.80;99.90
851;DHT22;412;51.400;7.480;2022-10-31T08:41:33;15.90;99.90
851;DHT22;412;51.400;7.480;2022-10-31T08:43:59;15.90;99.90
851;DHT22;412;51.400;7.480;2022-10-31T08:46:24;16.00;99.90
851;DHT22;412;51.400;7.480;2022-10-31T08:48:50;16.00;99.90
851;DHT22;412;51.400;7.480;2022-10-31T08:51:19;16.10;99.90
851;DHT22;412;51.400;7.480;2022-10-31T08:53:44;16.20;99.90
851;DHT22;412;51.400;7.480;2022-10-31T08:56:10;16.30;99.90
851;DHT22;412;51.400;7.480;2022-10-31T08:58:36;16.40;99.90
851;DHT22;412;51.400;7.480;2022-10-31T09:01:01;16.50;99.90
851;DHT22;412;51.400;7.480;2022-10-31T09:03:30;16.60;99.90
851;DHT22;412;51.400;7.480;2022-10-31T09:06:01;16.60;99.90
851;DHT22;412;51.400;7.480;2022-10-31T09:08:32;16.80;99.90
851;DHT22;412;51.400;7.480;2022-10-31T09:10:58;16.80;99.90
851;DHT22;412;51.400;7.480;2022-10-31T09:13:24;16.90;99.90
851;DHT22;412;51.400;7.480;2022-10-31T09:15:50;17.00;99.90
851;DHT22;412;51.400;7.480;2022-10-31T09:18:18;17.00;99.90
851;DHT22;412;51.400;7.480;2022-10-31T09:20:45;17.10;99.90
851;DHT22;412;51.400;7.480;2022-10-31T09:23:16;17.30;99.90
851;DHT22;412;51.400;7.480;2022-10-31T09:25:43;17.30;99.90
851;DHT22;412;51.400;7.480;2022-10-31T09:28:17;17.40;99.90
851;DHT22;412;51.400;7.480;2022-10-31T09:30:46;17.50;99.90
851;DHT22;412;51.400;7.480;2022-10-31T09:33:13;17.60;99.90
851;DHT22;412;51.400;7.480;2022-10-31T09:35:40;17.70;99.90
851;DHT22;412;51.400;7.480;2022-10-31T09:38:13;17.80;99.90
851;DHT22;412;51.400;7.480;2022-10-31T09:41:01;17.90;99.90
851;DHT22;412;51.400;7.480;2022-10-31T09:46:30;18.20;99.90
851;DHT22;412;51.400;7.480;2022-10-31T09:52:11;18.00;99.90
851;DHT22;412;51.400;7.480;2022-10-31T09:54:46;18.00;99.90
851;DHT22;412;51.400;7.480;2022-10-31T09:57:18;18.00;99.90
851;DHT22;412;51.400;7.480;2022-10-31T09:59:47;18.00;99.90
851;DHT22;412;51.400;7.480;2022-10-31T10:02:20;18.10;99.90
851;DHT22;412;51.400;7.480;2022-10-31T10:04:54;18.10;99.90
851;DHT22;412;51.400;7.480;2022-10-31T10:07:25;18.10;99.90
851;DHT22;412;51.400;7.480;2022-10-31T10:09:52;18.00;99.90
851;DHT22;412;51.400;7.480;2022-10-31T10:12:53;18.10;99.90
851;DHT22;412;51.400;7.480;2022-10-31T10:15:59;18.30;99.90
851;DHT22;412;51.400;7.480;2022-10-31T10:29:45;18.40;99.90
851;DHT22;412;51.400;7.480;2022-10-31T10:32:22;18.40;99.90
851;DHT22;412;51.400;7.480;2022-10-31T10:34:57;18.30;99.90
851;DHT22;412;51.400;7.480;2022-10-31T10:37:37;18.30;99.90
851;DHT22;412;51.400;7.480;2022-10-31T10:40:16;18.30;99.90
851;DHT22;412;51.400;7.480;2022-10-31T10:51:32;18.70;99.90
851;DHT22;412;51.400;7.480;2022-10-31T10:54:02;18.70;99.90
851;DHT22;412;51.400;7.480;2022-10-31T10:59:31;19.10;99.90
851;DHT22;412;51.400;7.480;2022-10-31T11:01:58;19.30;99.90
851;DHT22;412;51.400;7.480;2022-10-31T11:04:28;19.50;99.90
851;DHT22;412;51.400;7.480;2022-10-31T11:07:15;19.80;99.90
851;DHT22;412;51.400;7.480;2022-10-31T11:09:41;20.00;99.90
851;DHT22;412;51.400;7.480;2022-10-31T11:12:10;20.50;99.90
851;DHT22;412;51.400;7.480;2022-10-31T11:14:51;20.70;99.90
851;DHT22;412;51.400;7.480;2022-10-31T11:17:22;21.00;99.90
851;DHT22;412;51.400;7.480;2022-10-31T11:20:00;21.20;99.90
851;DHT22;412;51.400;7.480;2022-10-31T11:22:26;21.30;99.90
851;DHT22;412;51.400;7.480;2022-10-31T11:24:52;21.50;99.90
851;DHT22;412;51.400;7.480;2022-10-31T11:27:23;21.70;99.90
851;DHT22;412;51.400;7.480;2022-10-31T11:29:50;21.80;99.90
851;DHT22;412;51.400;7.480;2022-10-31T11:32:21;21.90;99.90
851;DHT22;412;51.400;7.480;2022-10-31T11:34:53;22.00;99.90
851;DHT22;412;51.400;7.480;2022-10-31T11:37:28;22.10;99.90
851;DHT22;412;51.400;7.480;2022-10-31T11:39:58;22.20;99.90
851;DHT22;412;51.400;7.480;2022-10-31T11:42:40;22.20;99.10
851;DHT22;412;51.400;7.480;2022-10-31T11:47:43;21.90;98.90
851;DHT22;412;51.400;7.480;2022-10-31T11:50:15;21.90;99.50
851;DHT22;412;51.400;7.480;2022-10-31T11:52:44;21.80;99.90
851;DHT22;412;51.400;7.480;2022-10-31T11:57:47;21.70;99.90
851;DHT22;412;51.400;7.480;2022-10-31T12:02:48;21.50;99.90
851;DHT22;412;51.400;7.480;2022-10-31T12:05:24;21.50;99.90
851;DHT22;412;51.400;7.480;2022-10-31T12:07:54;21.40;99.90
851;DHT22;412;51.400;7.480;2022-10-31T12:10:24;21.20;99.90
851;DHT22;412;51.400;7.480;2022-10-31T12:15:53;21.40;99.90
851;DHT22;412;51.400;7.480;2022-10-31T12:19:13;21.40;99.90
851;DHT22;412;51.400;7.480;2022-10-31T12:38:52;21.50;99.90
851;DHT22;412;51.400;7.480;2022-10-31T12:41:39;21.50;99.90
851;DHT22;412;51.400;7.480;2022-10-31T12:44:40;21.50;99.90
851;DHT22;412;51.400;7.480;2022-10-31T12:52:43;21.60;99.90
851;DHT22;412;51.400;7.480;2022-10-31T12:58:07;21.70;99.90
851;DHT22;412;51.400;7.480;2022-10-31T13:00:37;21.70;99.90
851;DHT22;412;51.400;7.480;2022-10-31T13:03:13;21.70;99.90
851;DHT22;412;51.400;7.480;2022-10-31T13:05:44;21.70;99.90
851;DHT22;412;51.400;7.480;2022-10-31T13:08:18;21.70;99.90
851;DHT22;412;51.400;7.480;2022-10-31T13:11:18;21.70;99.30
851;DHT22;412;51.400;7.480;2022-10-31T13:14:07;21.60;99.90
851;DHT22;412;51.400;7.480;2022-10-31T13:16:42;21.70;99.80
851;DHT22;412;51.400;7.480;2022-10-31T13:19:23;21.70;99.60
851;DHT22;412;51.400;7.480;2022-10-31T13:25:23;21.70;99.10
851;DHT22;412;51.400;7.480;2022-10-31T13:30:04;21.70;98.60
851;DHT22;412;51.400;7.480;2022-10-31T13:32:48;21.60;98.30
851;DHT22;412;51.400;7.480;2022-10-31T13:38:27;21.40;98.70
851;DHT22;412;51.400;7.480;2022-10-31T13:41:20;21.30;98.30
851;DHT22;412;51.400;7.480;2022-10-31T13:44:12;21.20;98.40
851;DHT22;412;51.400;7.480;2022-10-31T13:46:40;21.20;98.60
851;DHT22;412;51.400;7.480;2022-10-31T13:49:35;21.20;99.30
851;DHT22;412;51.400;7.480;2022-10-31T13:54:44;21.10;99.10
851;DHT22;412;51.400;7.480;2022-10-31T13:57:37;21.20;99.90
851;DHT22;412;51.400;7.480;2022-10-31T14:00:24;21.20;99.30
851;DHT22;412;51.400;7.480;2022-10-31T14:02:52;21.20;99.30
851;DHT22;412;51.400;7.480;2022-10-31T14:05:23;21.10;98.60
851;DHT22;412;51.400;7.480;2022-10-31T14:07:54;21.10;99.10
851;DHT22;412;51.400;7.480;2022-10-31T14:10:31;21.00;99.40
851;DHT22;412;51.400;7.480;2022-10-31T14:13:23;21.10;99.30
851;DHT22;412;51.400;7.480;2022-10-31T14:16:04;21.00;99.40
851;DHT22;412;51.400;7.480;2022-10-31T14:18:37;20.90;99.10
851;DHT22;412;51.400;7.480;2022-10-31T14:23:48;20.90;99.90
851;DHT22;412;51.400;7.480;2022-10-31T14:26:29;20.90;99.90
851;DHT22;412;51.400;7.480;2022-10-31T14:31:39;21.00;99.90
851;DHT22;412;51.400;7.480;2022-10-31T14:34:25;21.00;99.80
851;DHT22;412;51.400;7.480;2022-10-31T14:40:06;21.00;99.40
851;DHT22;412;51.400;7.480;2022-10-31T14:51:12;21.10;99.90
851;DHT22;412;51.400;7.480;2022-10-31T14:53:52;21.10;99.90
851;DHT22;412;51.400;7.480;2022-10-31T14:56:25;21.10;99.90
851;DHT22;412;51.400;7.480;2022-10-31T14:58:53;21.10;99.90
851;DHT22;412;51.400;7.480;2022-10-31T15:01:36;21.00;99.60
851;DHT22;412;51.400;7.480;2022-10-31T15:04:16;21.10;99.90
851;DHT22;412;51.400;7.480;2022-10-31T15:07:30;21.10;99.90
851;DHT22;412;51.400;7.480;2022-10-31T15:09:33;21.10;99.90
851;DHT22;412;51.400;7.480;2022-10-31T15:12:01;21.00;99.90
851;DHT22;412;51.400;7.480;2022-10-31T15:14:31;21.10;99.90
851;DHT22;412;51.400;7.480;2022-10-31T15:16:57;21.00;99.90
851;DHT22;412;51.400;7.480;2022-10-31T15:19:27;20.90;99.90
851;DHT22;412;51.400;7.480;2022-10-31T15:21:55;20.90;99.90
851;DHT22;412;51.400;7.480;2022-10-31T15:24:24;20.90;99.90
851;DHT22;412;51.400;7.480;2022-10-31T15:26:52;20.80;99.90
851;DHT22;412;51.400;7.480;2022-10-31T15:29:20;20.70;99.90
851;DHT22;412;51.400;7.480;2022-10-31T15:32:27;20.70;99.90
851;DHT22;412;51.400;7.480;2022-10-31T15:34:54;20.70;99.90
851;DHT22;412;51.400;7.480;2022-10-31T15:37:23;20.70;99.90
851;DHT22;412;51.400;7.480;2022-10-31T15:39:50;20.70;99.90
851;DHT22;412;51.400;7.480;2022-10-31T15:43:02;20.60;99.90
851;DHT22;412;51.400;7.480;2022-10-31T15:47:38;20.50;99.90
851;DHT22;412;51.400;7.480;2022-10-31T15:50:41;20.50;99.90
851;DHT22;412;51.400;7.480;2022-10-31T15:53:14;20.50;99.90
851;DHT22;412;51.400;7.480;2022-10-31T15:55:59;20.40;99.90
851;DHT22;412;51.400;7.480;2022-10-31T15:58:25;20.30;99.90
851;DHT22;412;51.400;7.480;2022-10-31T16:00:59;20.20;99.90
851;DHT22;412;51.400;7.480;2022-10-31T16:03:28;20.20;99.90
851;DHT22;412;51.400;7.480;2022-10-31T16:05:59;20.20;99.90
851;DHT22;412;51.400;7.480;2022-10-31T16:13:30;20.10;99.90
851;DHT22;412;51.400;7.480;2022-10-31T16:16:17;20.00;99.90
851;DHT22;412;51.400;7.480;2022-10-31T16:18:43;20.00;99.90
851;DHT22;412;51.400;7.480;2022-10-31T16:21:09;19.90;99.90
851;DHT22;412;51.400;7.480;2022-10-31T16:23:38;19.90;99.90
851;DHT22;412;51.400;7.480;2022-10-31T16:26:09;19.90;99.90
851;DHT22;412;51.400;7.480;2022-10-31T16:28:36;19.80;99.90
851;DHT22;412;51.400;7.480;2022-10-31T16:31:13;19.70;99.90
851;DHT22;412;51.400;7.480;2022-10-31T16:33:39;19.70;99.90
851;DHT22;412;51.400;7.480;2022-10-31T16:38:55;19.60;99.90
851;DHT22;412;51.400;7.480;2022-10-31T16:41:21;19.50;99.90
851;DHT22;412;51.400;7.480;2022-10-31T16:43:47;19.40;99.90
851;DHT22;412;51.400;7.480;2022-10-31T16:46:21;19.40;99.90
851;DHT22;412;51.400;7.480;2022-10-31T16:48:47;19.40;99.90
851;DHT22;412;51.400;7.480;2022-10-31T16:51:13;19.30;99.90
851;DHT22;412;51.400;7.480;2022-10-31T16:53:39;19.20;99.90
851;DHT22;412;51.400;7.480;2022-10-31T16:56:05;19.20;99.90
851;DHT22;412;51.400;7.480;2022-10-31T16:58:36;19.10;99.90
851;DHT22;412;51.400;7.480;2022-10-31T17:01:04;19.00;99.90
851;DHT22;412;51.400;7.480;2022-10-31T17:03:31;19.00;99.90
851;DHT22;412;51.400;7.480;2022-10-31T17:05:56;19.00;99.90
851;DHT22;412;51.400;7.480;2022-10-31T17:08:22;18.90;99.90
851;DHT22;412;51.400;7.480;2022-10-31T17:10:54;18.90;99.80
851;DHT22;412;51.400;7.480;2022-10-31T17:13:23;18.90;99.90
851;DHT22;412;51.400;7.480;2022-10-31T17:15:52;18.80;99.60
851;DHT22;412;51.400;7.480;2022-10-31T17:18:19;18.80;97.50
851;DHT22;412;51.400;7.480;2022-10-31T17:20:45;18.80;96.60
851;DHT22;412;51.400;7.480;2022-10-31T17:23:13;18.80;96.60
851;DHT22;412;51.400;7.480;2022-10-31T17:25:39;18.70;95.30
851;DHT22;412;51.400;7.480;2022-10-31T17:28:06;18.60;94.10
851;DHT22;412;51.400;7.480;2022-10-31T17:30:32;18.60;95.10
851;DHT22;412;51.400;7.480;2022-10-31T17:32:59;18.70;94.40
851;DHT22;412;51.400;7.480;2022-10-31T17:35:25;18.80;93.90
851;DHT22;412;51.400;7.480;2022-10-31T17:37:50;18.80;93.80
851;DHT22;412;51.400;7.480;2022-10-31T17:40:19;18.70;92.90
851;DHT22;412;51.400;7.480;2022-10-31T17:42:52;18.70;93.40
851;DHT22;412;51.400;7.480;2022-10-31T17:45:19;18.80;93.00
851;DHT22;412;51.400;7.480;2022-10-31T17:47:48;18.80;92.90
851;DHT22;412;51.400;7.480;2022-10-31T17:50:15;18.80;92.60
851;DHT22;412;51.400;7.480;2022-10-31T17:52:42;18.90;93.10
851;DHT22;412;51.400;7.480;2022-10-31T17:55:08;18.90;92.90
851;DHT22;412;51.400;7.480;2022-10-31T17:57:35;18.90;92.80
851;DHT22;412;51.400;7.480;2022-10-31T18:00:06;18.90;92.50
851;DHT22;412;51.400;7.480;2022-10-31T18:02:32;19.00;92.80
851;DHT22;412;51.400;7.480;2022-10-31T18:04:58;19.00;92.10
851;DHT22;412;51.400;7.480;2022-10-31T18:07:27;19.00;92.40
851;DHT22;412;51.400;7.480;2022-10-31T18:09:52;19.10;93.80
851;DHT22;412;51.400;7.480;2022-10-31T18:12:18;19.20;94.00
851;DHT22;412;51.400;7.480;2022-10-31T18:14:44;19.20;97.30
851;DHT22;412;51.400;7.480;2022-10-31T18:17:09;19.20;94.90
851;DHT22;412;51.400;7.480;2022-10-31T18:19:35;19.30;94.20
851;DHT22;412;51.400;7.480;2022-10-31T18:22:01;19.30;93.40
851;DHT22;412;51.400;7.480;2022-10-31T18:24:26;19.30;93.20
851;DHT22;412;51.400;7.480;2022-10-31T18:26:53;19.40;96.40
851;DHT22;412;51.400;7.480;2022-10-31T18:29:19;19.40;96.20
851;DHT22;412;51.400;7.480;2022-10-31T18:31:45;19.40;93.50
851;DHT22;412;51.400;7.480;2022-10-31T18:34:14;19.50;94.90
851;DHT22;412;51.400;7.480;2022-10-31T18:36:40;19.50;94.40
851;DHT22;412;51.400;7.480;2022-10-31T18:39:06;19.50;96.20
851;DHT22;412;51.400;7.480;2022-10-31T18:41:32;19.50;94.40
851;DHT22;412;51.400;7.480;2022-10-31T18:43:58;19.50;94.80
851;DHT22;412;51.400;7.480;2022-10-31T18:46:25;19.40;93.80
851;DHT22;412;51.400;7.480;2022-10-31T18:48:52;19.40;95.00
851;DHT22;412;51.400;7.480;2022-10-31T18:51:17;19.40;95.00
851;DHT22;412;51.400;7.480;2022-10-31T18:53:51;19.40;95.50
851;DHT22;412;51.400;7.480;2022-10-31T18:56:17;19.40;95.30
851;DHT22;412;51.400;7.480;2022-10-31T18:58:42;19.40;95.60
851;DHT22;412;51.400;7.480;2022-10-31T19:01:10;19.30;95.00
851;DHT22;412;51.400;7.480;2022-10-31T19:03:36;19.20;94.20
851;DHT22;412;51.400;7.480;2022-10-31T19:06:02;19.20;94.60
851;DHT22;412;51.400;7.480;2022-10-31T19:08:28;19.10;95.60
851;DHT22;412;51.400;7.480;2022-10-31T19:10:54;19.20;97.00